sensor_id;sensor_type;location;lat;lon;timestamp;pressure;altitude;pressure_sealevel;temperature
45034;BMP280;30771;47.988;-4.186;2023-03-01T07:02:49;100990.41;;;-0.08
45034;BMP280;30771;47.988;-4.186;2023-03-01T07:05:14;100996.44;;;-0.08
45034;BMP280;30771;47.988;-4.186;2023-03-01T07:07:39;101007.38;;;-0.04
45034;BMP280;30771;47.988;-4.186;2023-03-01T07:10:05;101012.31;;;-0.01
45034;BMP280;30771;47.988;-4.186;2023-03-01T07:12:30;101019.16;;;0.00
45034;BMP280;30771;47.988;-4.186;2023-03-01T07:14:55;101027.50;;;0.04
45034;BMP280;30771;47.988;-4.186;2023-03-01T07:17:20;101028.13;;;0.07
45034;BMP280;30771;47.988;-4.186;2023-03-01T07:19:46;101052.84;;;0.11
45034;BMP280;30771;47.988;-4.186;2023-03-01T07:22:11;101058.63;;;0.15
45034;BMP280;30771;47.988;-4.186;2023-03-01T07:24:36;101067.13;;;0.17
45034;BMP280;30771;47.988;-4.186;2023-03-01T07:27:01;101075.47;;;0.20
45034;BMP280;30771;47.988;-4.186;2023-03-01T07:29:26;101091.63;;;0.24
45034;BMP280;30771;47.988;-4.186;2023-03-01T07:31:52;101103.72;;;0.23
45034;BMP280;30771;47.988;-4.186;2023-03-01T07:34:17;101109.53;;;0.27
45034;BMP280;30771;47.988;-4.186;2023-03-01T07:36:42;101127.41;;;0.30
45034;BMP280;30771;47.988;-4.186;2023-03-01T07:39:07;101139.19;;;0.34
45034;BMP280;30771;47.988;-4.186;2023-03-01T07:41:32;101151.91;;;0.37
45034;BMP280;30771;47.988;-4.186;2023-03-01T07:43:57;101167.34;;;0.38
45034;BMP280;30771;47.988;-4.186;2023-03-01T07:46:23;101171.47;;;0.41
45034;BMP280;30771;47.988;-4.186;2023-03-01T07:48:48;101182.34;;;0.46
45034;BMP280;30771;47.988;-4.186;2023-03-01T07:51:13;101180.22;;;0.51
45034;BMP280;30771;47.988;-4.186;2023-03-01T07:53:38;101194.50;;;0.56
45034;BMP280;30771;47.988;-4.186;2023-03-01T07:56:04;101202.75;;;0.61
45034;BMP280;30771;47.988;-4.186;2023-03-01T07:58:30;101212.91;;;0.64
45034;BMP280;30771;47.988;-4.186;2023-03-01T08:00:55;101219.63;;;0.67
45034;BMP280;30771;47.988;-4.186;2023-03-01T08:03:20;101235.09;;;0.68
45034;BMP280;30771;47.988;-4.186;2023-03-01T08:05:45;101243.56;;;0.71
45034;BMP280;30771;47.988;-4.186;2023-03-01T08:08:10;101240.84;;;0.72
45034;BMP280;30771;47.988;-4.186;2023-03-01T08:10:36;101238.88;;;0.76
45034;BMP280;30771;47.988;-4.186;2023-03-01T08:13:01;101248.06;;;0.80
45034;BMP280;30771;47.988;-4.186;2023-03-01T08:15:26;101249.63;;;0.82
45034;BMP280;30771;47.988;-4.186;2023-03-01T08:17:51;101257.06;;;0.87
45034;BMP280;30771;47.988;-4.186;2023-03-01T08:20:17;101256.13;;;0.88
45034;BMP280;30771;47.988;-4.186;2023-03-01T08:22:42;101258.50;;;0.91
45034;BMP280;30771;47.988;-4.186;2023-03-01T08:25:07;101259.81;;;0.96
45034;BMP280;30771;47.988;-4.186;2023-03-01T08:27:32;101260.06;;;1.04
45034;BMP280;30771;47.988;-4.186;2023-03-01T08:29:57;101259.28;;;1.15
45034;BMP280;30771;47.988;-4.186;2023-03-01T08:32:22;101258.47;;;1.25
45034;BMP280;30771;47.988;-4.186;2023-03-01T08:34:48;101263.06;;;1.33
45034;BMP280;30771;47.988;-4.186;2023-03-01T08:37:13;101270.06;;;1.44
45034;BMP280;30771;47.988;-4.186;2023-03-01T08:39:38;101271.16;;;1.52
45034;BMP280;30771;47.988;-4.186;2023-03-01T08:42:03;101284.97;;;1.64
45034;BMP280;30771;47.988;-4.186;2023-03-01T08:44:28;101284.75;;;1.78
45034;BMP280;30771;47.988;-4.186;2023-03-01T08:46:54;101299.13;;;1.93
45034;BMP280;30771;47.988;-4.186;2023-03-01T08:49:19;101315.16;;;2.09
45034;BMP280;30771;47.988;-4.186;2023-03-01T08:51:45;101316.59;;;2.24
45034;BMP280;30771;47.988;-4.186;2023-03-01T08:54:14;101332.72;;;2.39
45034;BMP280;30771;47.988;-4.186;2023-03-01T08:56:40;101349.88;;;2.52
45034;BMP280;30771;47.988;-4.186;2023-03-01T08:59:05;101359.38;;;2.63
45034;BMP280;30771;47.988;-4.186;2023-03-01T09:01:30;101376.03;;;2.71
45034;BMP280;30771;47.988;-4.186;2023-03-01T09:03:55;101389.84;;;2.83
45034;BMP280;30771;47.988;-4.186;2023-03-01T09:06:21;101401.03;;;2.95
45034;BMP280;30771;47.988;-4.186;2023-03-01T09:08:47;101399.09;;;3.08
45034;BMP280;30771;47.988;-4.186;2023-03-01T09:11:14;101411.25;;;3.18
45034;BMP280;30771;47.988;-4.186;2023-03-01T09:13:40;101413.78;;;3.29
45034;BMP280;30771;47.988;-4.186;2023-03-01T09:16:06;101431.41;;;3.37
45034;BMP280;30771;47.988;-4.186;2023-03-01T09:18:32;101434.78;;;3.48
45034;BMP280;30771;47.988;-4.186;2023-03-01T09:21:04;101427.84;;;3.59
45034;BMP280;30771;47.988;-4.186;2023-03-01T09:23:30;101437.13;;;3.72
45034;BMP280;30771;47.988;-4.186;2023-03-01T09:25:55;101438.03;;;3.82
45034;BMP280;30771;47.988;-4.186;2023-03-01T09:28:20;101455.56;;;3.80
45034;BMP280;30771;47.988;-4.186;2023-03-01T09:30:45;101465.84;;;3.82
45034;BMP280;30771;47.988;-4.186;2023-03-01T09:33:10;101475.00;;;3.97
45034;BMP280;30771;47.988;-4.186;2023-03-01T09:35:36;101465.34;;;4.08
45034;BMP280;30771;47.988;-4.186;2023-03-01T09:38:01;101462.50;;;4.21
45034;BMP280;30771;47.988;-4.186;2023-03-01T09:40:26;101466.13;;;4.30
45034;BMP280;30771;47.988;-4.186;2023-03-01T09:43:00;101462.03;;;4.37
45034;BMP280;30771;47.988;-4.186;2023-03-01T09:45:35;101466.31;;;4.47
45034;BMP280;30771;47.988;-4.186;2023-03-01T09:48:03;101470.06;;;4.54
45034;BMP280;30771;47.988;-4.186;2023-03-01T09:50:32;101468.69;;;4.60
45034;BMP280;30771;47.988;-4.186;2023-03-01T09:53:02;101468.19;;;4.66
45034;BMP280;30771;47.988;-4.186;2023-03-01T09:58:25;101488.22;;;4.75
45034;BMP280;30771;47.988;-4.186;2023-03-01T10:00:53;101483.75;;;4.86
45034;BMP280;30771;47.988;-4.186;2023-03-01T10:03:26;101484.56;;;4.96
45034;BMP280;30771;47.988;-4.186;2023-03-01T10:08:25;101476.38;;;5.20
45034;BMP280;30771;47.988;-4.186;2023-03-01T10:10:51;101465.09;;;5.29
45034;BMP280;30771;47.988;-4.186;2023-03-01T10:13:21;101473.09;;;5.37
45034;BMP280;30771;47.988;-4.186;2023-03-01T10:15:50;101461.78;;;5.46
45034;BMP280;30771;47.988;-4.186;2023-03-01T10:18:17;101458.47;;;5.54
45034;BMP280;30771;47.988;-4.186;2023-03-01T10:20:59;101459.84;;;5.58
45034;BMP280;30771;47.988;-4.186;2023-03-01T10:23:25;101454.63;;;5.67
45034;BMP280;30771;47.988;-4.186;2023-03-01T10:25:57;101448.81;;;5.73
45034;BMP280;30771;47.988;-4.186;2023-03-01T10:28:31;101449.09;;;5.80
45034;BMP280;30771;47.988;-4.186;2023-03-01T10:31:01;101437.50;;;5.92
45034;BMP280;30771;47.988;-4.186;2023-03-01T10:33:28;101426.03;;;6.03
45034;BMP280;30771;47.988;-4.186;2023-03-01T10:35:54;101445.44;;;6.00
45034;BMP280;30771;47.988;-4.186;2023-03-01T10:38:19;101445.88;;;5.96
45034;BMP280;30771;47.988;-4.186;2023-03-01T10:43:16;101449.47;;;5.95
45034;BMP280;30771;47.988;-4.186;2023-03-01T10:45:41;101450.28;;;5.95
45034;BMP280;30771;47.988;-4.186;2023-03-01T10:48:13;101436.34;;;6.04
45034;BMP280;30771;47.988;-4.186;2023-03-01T10:50:45;101430.94;;;6.15
45034;BMP280;30771;47.988;-4.186;2023-03-01T10:53:20;101433.28;;;6.18
45034;BMP280;30771;47.988;-4.186;2023-03-01T10:55:45;101426.09;;;6.20
45034;BMP280;30771;47.988;-4.186;2023-03-01T11:00:46;101422.09;;;6.16
45034;BMP280;30771;47.988;-4.186;2023-03-01T11:03:12;101411.63;;;6.16
45034;BMP280;30771;47.988;-4.186;2023-03-01T11:13:36;101409.91;;;6.34
45034;BMP280;30771;47.988;-4.186;2023-03-01T11:16:07;101414.63;;;6.31
45034;BMP280;30771;47.988;-4.186;2023-03-01T11:18:34;101391.59;;;6.34
45034;BMP280;30771;47.988;-4.186;2023-03-01T11:21:00;101394.09;;;6.53
45034;BMP280;30771;47.988;-4.186;2023-03-01T11:23:25;101384.84;;;6.59
45034;BMP280;30771;47.988;-4.186;2023-03-01T11:25:56;101388.38;;;6.68
45034;BMP280;30771;47.988;-4.186;2023-03-01T11:28:22;101383.19;;;6.76
45034;BMP280;30771;47.988;-4.186;2023-03-01T11:30:49;101380.09;;;6.80
45034;BMP280;30771;47.988;-4.186;2023-03-01T11:35:46;101379.59;;;6.94
45034;BMP280;30771;47.988;-4.186;2023-03-01T11:38:17;101377.47;;;6.90
45034;BMP280;30771;47.988;-4.186;2023-03-01T11:40:44;101377.28;;;6.91
45034;BMP280;30771;47.988;-4.186;2023-03-01T11:45:43;101362.94;;;7.21
45034;BMP280;30771;47.988;-4.186;2023-03-01T11:48:31;101349.88;;;7.55
45034;BMP280;30771;47.988;-4.186;2023-03-01T11:50:58;101334.28;;;7.87
45034;BMP280;30771;47.988;-4.186;2023-03-01T11:54:09;101341.56;;;8.01
45034;BMP280;30771;47.988;-4.186;2023-03-01T11:56:22;101359.91;;;7.93
45034;BMP280;30771;47.988;-4.186;2023-03-01T11:59:01;101349.28;;;8.10
45034;BMP280;30771;47.988;-4.186;2023-03-01T12:14:59;101368.88;;;7.82
45034;BMP280;30771;47.988;-4.186;2023-03-01T12:20:07;101369.59;;;7.67
45034;BMP280;30771;47.988;-4.186;2023-03-01T12:22:55;101342.78;;;7.81
45034;BMP280;30771;47.988;-4.186;2023-03-01T12:35:28;101347.97;;;7.65
45034;BMP280;30771;47.988;-4.186;2023-03-01T12:40:35;101312.34;;;7.88
45034;BMP280;30771;47.988;-4.186;2023-03-01T12:50:25;101304.03;;;8.16
45034;BMP280;30771;47.988;-4.186;2023-03-01T12:52:52;101305.53;;;8.27
45034;BMP280;30771;47.988;-4.186;2023-03-01T12:55:21;101290.44;;;8.37
45034;BMP280;30771;47.988;-4.186;2023-03-01T13:00:27;101279.31;;;8.51
45034;BMP280;30771;47.988;-4.186;2023-03-01T13:05:26;101275.84;;;8.51
45034;BMP280;30771;47.988;-4.186;2023-03-01T13:10:52;101266.31;;;8.25
45034;BMP280;30771;47.988;-4.186;2023-03-01T13:13:22;101278.31;;;8.12
45034;BMP280;30771;47.988;-4.186;2023-03-01T13:15:47;101271.06;;;8.06
45034;BMP280;30771;47.988;-4.186;2023-03-01T13:23:07;101228.31;;;8.29
45034;BMP280;30771;47.988;-4.186;2023-03-01T13:25:34;101221.88;;;8.40
45034;BMP280;30771;47.988;-4.186;2023-03-01T13:30:43;101228.44;;;8.52
45034;BMP280;30771;47.988;-4.186;2023-03-01T13:35:48;101215.63;;;8.73
45034;BMP280;30771;47.988;-4.186;2023-03-01T13:40:58;101226.63;;;8.69
45034;BMP280;30771;47.988;-4.186;2023-03-01T13:43:28;101234.50;;;8.69
45034;BMP280;30771;47.988;-4.186;2023-03-01T13:45:54;101241.56;;;8.68
45034;BMP280;30771;47.988;-4.186;2023-03-01T13:50:50;101243.53;;;8.58
45034;BMP280;30771;47.988;-4.186;2023-03-01T13:53:17;101227.47;;;8.61
45034;BMP280;30771;47.988;-4.186;2023-03-01T13:55:44;101224.00;;;8.69
45034;BMP280;30771;47.988;-4.186;2023-03-01T14:00:47;101220.50;;;8.76
45034;BMP280;30771;47.988;-4.186;2023-03-01T14:03:19;101207.69;;;8.89
45034;BMP280;30771;47.988;-4.186;2023-03-01T14:08:42;101206.06;;;8.88
45034;BMP280;30771;47.988;-4.186;2023-03-01T14:16:44;101218.56;;;8.78
45034;BMP280;30771;47.988;-4.186;2023-03-01T14:18:47;101221.38;;;8.69
45034;BMP280;30771;47.988;-4.186;2023-03-01T14:21:16;101212.19;;;8.65
45034;BMP280;30771;47.988;-4.186;2023-03-01T14:23:41;101208.25;;;8.69
45034;BMP280;30771;47.988;-4.186;2023-03-01T14:26:07;101193.78;;;8.81
45034;BMP280;30771;47.988;-4.186;2023-03-01T14:28:33;101189.41;;;8.96
45034;BMP280;30771;47.988;-4.186;2023-03-01T14:31:01;101185.97;;;9.03
45034;BMP280;30771;47.988;-4.186;2023-03-01T14:35:55;101183.16;;;9.05
45034;BMP280;30771;47.988;-4.186;2023-03-01T14:38:22;101190.75;;;9.00
45034;BMP280;30771;47.988;-4.186;2023-03-01T14:40:47;101189.59;;;9.02
45034;BMP280;30771;47.988;-4.186;2023-03-01T14:43:15;101188.91;;;9.08
45034;BMP280;30771;47.988;-4.186;2023-03-01T14:45:42;101186.56;;;9.13
45034;BMP280;30771;47.988;-4.186;2023-03-01T14:48:11;101193.59;;;9.21
45034;BMP280;30771;47.988;-4.186;2023-03-01T14:50:40;101196.84;;;9.23
45034;BMP280;30771;47.988;-4.186;2023-03-01T14:53:05;101175.47;;;9.34
45034;BMP280;30771;47.988;-4.186;2023-03-01T14:57:57;101192.91;;;9.58
45034;BMP280;30771;47.988;-4.186;2023-03-01T15:00:26;101195.66;;;9.34
45034;BMP280;30771;47.988;-4.186;2023-03-01T15:02:52;101200.09;;;9.10
45034;BMP280;30771;47.988;-4.186;2023-03-01T15:05:21;101182.69;;;9.01
45034;BMP280;30771;47.988;-4.186;2023-03-01T15:07:47;101183.13;;;8.74
45034;BMP280;30771;47.988;-4.186;2023-03-01T15:10:18;101193.66;;;8.58
45034;BMP280;30771;47.988;-4.186;2023-03-01T15:12:44;101179.72;;;8.50
45034;BMP280;30771;47.988;-4.186;2023-03-01T15:17:48;101167.53;;;8.57
45034;BMP280;30771;47.988;-4.186;2023-03-01T15:20:16;101152.97;;;8.62
45034;BMP280;30771;47.988;-4.186;2023-03-01T15:22:44;101147.88;;;8.69
45034;BMP280;30771;47.988;-4.186;2023-03-01T15:25:28;101155.59;;;8.62
45034;BMP280;30771;47.988;-4.186;2023-03-01T15:27:55;101157.03;;;8.57
45034;BMP280;30771;47.988;-4.186;2023-03-01T15:30:22;101155.78;;;8.53
45034;BMP280;30771;47.988;-4.186;2023-03-01T15:32:48;101150.19;;;8.56
45034;BMP280;30771;47.988;-4.186;2023-03-01T15:35:33;101134.22;;;8.65
45034;BMP280;30771;47.988;-4.186;2023-03-01T15:38:00;101133.72;;;8.70
45034;BMP280;30771;47.988;-4.186;2023-03-01T15:40:29;101135.22;;;8.72
45034;BMP280;30771;47.988;-4.186;2023-03-01T15:42:54;101139.94;;;8.77
45034;BMP280;30771;47.988;-4.186;2023-03-01T15:45:23;101125.97;;;8.84
45034;BMP280;30771;47.988;-4.186;2023-03-01T15:47:49;101124.59;;;8.96
45034;BMP280;30771;47.988;-4.186;2023-03-01T15:50:53;101123.22;;;9.08
45034;BMP280;30771;47.988;-4.186;2023-03-01T15:53:13;101128.69;;;8.99
45034;BMP280;30771;47.988;-4.186;2023-03-01T15:55:38;101125.63;;;8.87
45034;BMP280;30771;47.988;-4.186;2023-03-01T15:58:12;101110.38;;;8.91
45034;BMP280;30771;47.988;-4.186;2023-03-01T16:00:38;101109.31;;;9.00
45034;BMP280;30771;47.988;-4.186;2023-03-01T16:03:03;101093.66;;;9.06
45034;BMP280;30771;47.988;-4.186;2023-03-01T16:05:30;101092.38;;;9.10
45034;BMP280;30771;47.988;-4.186;2023-03-01T16:07:55;101095.63;;;9.12
45034;BMP280;30771;47.988;-4.186;2023-03-01T16:10:20;101095.03;;;9.02
45034;BMP280;30771;47.988;-4.186;2023-03-01T16:12:45;101090.31;;;8.90
45034;BMP280;30771;47.988;-4.186;2023-03-01T16:15:13;101086.44;;;8.78
45034;BMP280;30771;47.988;-4.186;2023-03-01T16:17:40;101086.34;;;8.63
45034;BMP280;30771;47.988;-4.186;2023-03-01T16:20:05;101085.38;;;8.56
45034;BMP280;30771;47.988;-4.186;2023-03-01T16:22:30;101073.09;;;8.49
45034;BMP280;30771;47.988;-4.186;2023-03-01T16:24:55;101073.44;;;8.38
45034;BMP280;30771;47.988;-4.186;2023-03-01T16:27:21;101061.69;;;8.33
45034;BMP280;30771;47.988;-4.186;2023-03-01T16:29:46;101059.06;;;8.33
45034;BMP280;30771;47.988;-4.186;2023-03-01T16:32:11;101054.00;;;8.32
45034;BMP280;30771;47.988;-4.186;2023-03-01T16:34:36;101047.41;;;8.28
45034;BMP280;30771;47.988;-4.186;2023-03-01T16:37:01;101058.41;;;8.15
45034;BMP280;30771;47.988;-4.186;2023-03-01T16:39:26;101048.63;;;8.09
45034;BMP280;30771;47.988;-4.186;2023-03-01T16:41:52;101039.28;;;8.07
45034;BMP280;30771;47.988;-4.186;2023-03-01T16:44:17;101031.25;;;8.00
45034;BMP280;30771;47.988;-4.186;2023-03-01T16:46:42;101027.84;;;7.92
45034;BMP280;30771;47.988;-4.186;2023-03-01T16:49:07;101016.38;;;7.85
45034;BMP280;30771;47.988;-4.186;2023-03-01T16:51:32;101010.97;;;7.78
45034;BMP280;30771;47.988;-4.186;2023-03-01T16:53:57;101009.66;;;7.74
45034;BMP280;30771;47.988;-4.186;2023-03-01T16:56:23;100998.88;;;7.69
45034;BMP280;30771;47.988;-4.186;2023-03-01T16:58:48;100996.75;;;7.65
45034;BMP280;30771;47.988;-4.186;2023-03-01T17:01:14;101000.72;;;7.61
45034;BMP280;30771;47.988;-4.186;2023-03-01T17:03:40;100997.25;;;7.52
45034;BMP280;30771;47.988;-4.186;2023-03-01T17:06:06;100987.91;;;7.49
45034;BMP280;30771;47.988;-4.186;2023-03-01T17:08:32;100987.28;;;7.47
45034;BMP280;30771;47.988;-4.186;2023-03-01T17:11:07;100977.28;;;7.43
45034;BMP280;30771;47.988;-4.186;2023-03-01T17:13:33;100987.94;;;7.33
45034;BMP280;30771;47.988;-4.186;2023-03-01T17:15:59;100980.38;;;7.22
45034;BMP280;30771;47.988;-4.186;2023-03-01T17:18:24;100984.81;;;7.14
45034;BMP280;30771;47.988;-4.186;2023-03-01T17:20:49;100991.50;;;7.08
45034;BMP280;30771;47.988;-4.186;2023-03-01T17:23:14;100985.28;;;7.01
45034;BMP280;30771;47.988;-4.186;2023-03-01T17:25:43;100973.97;;;6.85
45034;BMP280;30771;47.988;-4.186;2023-03-01T17:28:08;100990.31;;;6.87
45034;BMP280;30771;47.988;-4.186;2023-03-01T17:30:33;100985.56;;;6.82
45034;BMP280;30771;47.988;-4.186;2023-03-01T17:32:58;100983.25;;;6.79
45034;BMP280;30771;47.988;-4.186;2023-03-01T17:35:23;100978.66;;;6.73
45034;BMP280;30771;47.988;-4.186;2023-03-01T17:37:48;100981.09;;;6.67
45034;BMP280;30771;47.988;-4.186;2023-03-01T17:40:14;100988.59;;;6.61
45034;BMP280;30771;47.988;-4.186;2023-03-01T17:42:39;100988.09;;;6.58
45034;BMP280;30771;47.988;-4.186;2023-03-01T17:45:04;100991.53;;;6.58
45034;BMP280;30771;47.988;-4.186;2023-03-01T17:47:30;100984.81;;;6.56
45034;BMP280;30771;47.988;-4.186;2023-03-01T17:49:55;100983.19;;;6.55
45034;BMP280;30771;47.988;-4.186;2023-03-01T17:52:20;100976.13;;;6.55
45034;BMP280;30771;47.988;-4.186;2023-03-01T17:54:45;100967.50;;;6.55
45034;BMP280;30771;47.988;-4.186;2023-03-01T17:57:10;100965.22;;;6.52
45034;BMP280;30771;47.988;-4.186;2023-03-01T17:59:36;100967.47;;;6.47
45034;BMP280;30771;47.988;-4.186;2023-03-01T18:02:01;100964.81;;;6.39
45034;BMP280;30771;47.988;-4.186;2023-03-01T18:04:26;100945.84;;;6.37
45034;BMP280;30771;47.988;-4.186;2023-03-01T18:06:52;100967.06;;;6.34
45034;BMP280;30771;47.988;-4.186;2023-03-01T18:09:17;100953.34;;;6.32
45034;BMP280;30771;47.988;-4.186;2023-03-01T18:11:42;100970.16;;;6.29
45034;BMP280;30771;47.988;-4.186;2023-03-01T18:14:07;100963.63;;;6.25
45034;BMP280;30771;47.988;-4.186;2023-03-01T18:16:33;100969.31;;;6.21
45034;BMP280;30771;47.988;-4.186;2023-03-01T18:18:58;100971.94;;;6.21
45034;BMP280;30771;47.988;-4.186;2023-03-01T18:21:27;100970.44;;;6.18
45034;BMP280;30771;47.988;-4.186;2023-03-01T18:23:52;100979.41;;;6.16
45034;BMP280;30771;47.988;-4.186;2023-03-01T18:26:18;100988.38;;;6.13
45034;BMP280;30771;47.988;-4.186;2023-03-01T18:28:43;100992.97;;;6.11
45034;BMP280;30771;47.988;-4.186;2023-03-01T18:31:08;100986.09;;;6.10
45034;BMP280;30771;47.988;-4.186;2023-03-01T18:33:34;100987.22;;;6.08
45034;BMP280;30771;47.988;-4.186;2023-03-01T18:35:59;100980.66;;;6.04
45034;BMP280;30771;47.988;-4.186;2023-03-01T18:38:24;100978.47;;;5.99
45034;BMP280;30771;47.988;-4.186;2023-03-01T18:40:50;100970.16;;;5.96
45034;BMP280;30771;47.988;-4.186;2023-03-01T18:43:15;100973.22;;;5.91
45034;BMP280;30771;47.988;-4.186;2023-03-01T18:45:44;100964.88;;;5.88
45034;BMP280;30771;47.988;-4.186;2023-03-01T18:48:12;100956.53;;;5.84
45034;BMP280;30771;47.988;-4.186;2023-03-01T18:50:38;100962.72;;;5.83
45034;BMP280;30771;47.988;-4.186;2023-03-01T18:53:03;100964.53;;;5.82
45034;BMP280;30771;47.988;-4.186;2023-03-01T18:55:33;100969.75;;;5.82
45034;BMP280;30771;47.988;-4.186;2023-03-01T18:57:59;100965.50;;;5.82
45034;BMP280;30771;47.988;-4.186;2023-03-01T19:00:24;100969.09;;;5.80
45034;BMP280;30771;47.988;-4.186;2023-03-01T19:02:49;100976.25;;;5.78
45034;BMP280;30771;47.988;-4.186;2023-03-01T19:05:14;100977.38;;;5.76
45034;BMP280;30771;47.988;-4.186;2023-03-01T19:07:39;100976.72;;;5.74
45034;BMP280;30771;47.988;-4.186;2023-03-01T19:10:05;100976.16;;;5.70
45034;BMP280;30771;47.988;-4.186;2023-03-01T19:12:30;100991.84;;;5.70
45034;BMP280;30771;47.988;-4.186;2023-03-01T19:14:55;100986.00;;;5.68
45034;BMP280;30771;47.988;-4.186;2023-03-01T19:17:21;100996.44;;;5.68
45034;BMP280;30771;47.988;-4.186;2023-03-01T19:19:46;100998.38;;;5.66
45034;BMP280;30771;47.988;-4.186;2023-03-01T19:22:12;101001.94;;;5.65
45034;BMP280;30771;47.988;-4.186;2023-03-01T19:24:37;100996.72;;;5.65
45034;BMP280;30771;47.988;-4.186;2023-03-01T19:27:02;101003.75;;;5.65
45034;BMP280;30771;47.988;-4.186;2023-03-01T19:29:27;101000.34;;;5.64
45034;BMP280;30771;47.988;-4.186;2023-03-01T19:31:52;101004.72;;;5.64
45034;BMP280;30771;47.988;-4.186;2023-03-01T19:34:17;101010.06;;;5.62
45034;BMP280;30771;47.988;-4.186;2023-03-01T19:36:43;101010.91;;;5.63
45034;BMP280;30771;47.988;-4.186;2023-03-01T19:39:08;101012.69;;;5.62
45034;BMP280;30771;47.988;-4.186;2023-03-01T19:41:34;101010.25;;;5.61
45034;BMP280;30771;47.988;-4.186;2023-03-01T19:43:59;101008.59;;;5.60
45034;BMP280;30771;47.988;-4.186;2023-03-01T19:46:25;101004.34;;;5.59
45034;BMP280;30771;47.988;-4.186;2023-03-01T19:48:53;101007.91;;;5.58
45034;BMP280;30771;47.988;-4.186;2023-03-01T19:51:18;101005.63;;;5.55
45034;BMP280;30771;47.988;-4.186;2023-03-01T19:53:44;100997.13;;;5.53
45034;BMP280;30771;47.988;-4.186;2023-03-01T19:56:09;101004.16;;;5.52
45034;BMP280;30771;47.988;-4.186;2023-03-01T19:58:34;101001.81;;;5.49
45034;BMP280;30771;47.988;-4.186;2023-03-01T20:00:59;100993.31;;;5.47
45034;BMP280;30771;47.988;-4.186;2023-03-01T20:05:50;100987.84;;;5.41
45034;BMP280;30771;47.988;-4.186;2023-03-01T20:08:15;100981.59;;;5.34
45034;BMP280;30771;47.988;-4.186;2023-03-01T20:10:41;100982.88;;;5.30
45034;BMP280;30771;47.988;-4.186;2023-03-01T20:13:06;100974.00;;;5.23
45034;BMP280;30771;47.988;-4.186;2023-03-01T20:15:31;100969.38;;;5.17
45034;BMP280;30771;47.988;-4.186;2023-03-01T20:17:56;100966.38;;;5.12
45034;BMP280;30771;47.988;-4.186;2023-03-01T20:20:21;100958.16;;;5.07
45034;BMP280;30771;47.988;-4.186;2023-03-01T20:22:46;100948.19;;;5.02
45034;BMP280;30771;47.988;-4.186;2023-03-01T20:25:12;100953.84;;;4.97
45034;BMP280;30771;47.988;-4.186;2023-03-01T20:27:37;100946.59;;;4.91
45034;BMP280;30771;47.988;-4.186;2023-03-01T20:30:03;100930.59;;;4.86
45034;BMP280;30771;47.988;-4.186;2023-03-01T20:32:29;100936.25;;;4.82
45034;BMP280;30771;47.988;-4.186;2023-03-01T20:34:54;100927.91;;;4.78
45034;BMP280;30771;47.988;-4.186;2023-03-01T20:37:19;100921.97;;;4.76
45034;BMP280;30771;47.988;-4.186;2023-03-01T20:39:44;100923.25;;;4.72
45034;BMP280;30771;47.988;-4.186;2023-03-01T20:42:09;100921.09;;;4.68
45034;BMP280;30771;47.988;-4.186;2023-03-01T20:44:35;100929.38;;;4.63
45034;BMP280;30771;47.988;-4.186;2023-03-01T20:47:00;100913.31;;;4.58
45034;BMP280;30771;47.988;-4.186;2023-03-01T20:49:25;100917.19;;;4.54
45034;BMP280;30771;47.988;-4.186;2023-03-01T20:51:50;100912.94;;;4.53
45034;BMP280;30771;47.988;-4.186;2023-03-01T20:54:15;100911.63;;;4.49
45034;BMP280;30771;47.988;-4.186;2023-03-01T20:56:41;100902.41;;;4.45
45034;BMP280;30771;47.988;-4.186;2023-03-01T20:59:06;100899.97;;;4.44
45034;BMP280;30771;47.988;-4.186;2023-03-01T21:01:32;100889.81;;;4.41
45034;BMP280;30771;47.988;-4.186;2023-03-01T21:03:57;100898.75;;;4.38
45034;BMP280;30771;47.988;-4.186;2023-03-01T21:06:22;100887.66;;;4.36
45034;BMP280;30771;47.988;-4.186;2023-03-01T21:08:47;100890.56;;;4.33
45034;BMP280;30771;47.988;-4.186;2023-03-01T21:11:12;100882.06;;;4.31
45034;BMP280;30771;47.988;-4.186;2023-03-01T21:13:38;100878.63;;;4.31
45034;BMP280;30771;47.988;-4.186;2023-03-01T21:16:04;100880.28;;;4.32
45034;BMP280;30771;47.988;-4.186;2023-03-01T21:18:30;100877.69;;;4.32
45034;BMP280;30771;47.988;-4.186;2023-03-01T21:20:59;100875.91;;;4.32
45034;BMP280;30771;47.988;-4.186;2023-03-01T21:23:24;100880.97;;;4.34
45034;BMP280;30771;47.988;-4.186;2023-03-01T21:28:27;100885.03;;;4.36
45034;BMP280;30771;47.988;-4.186;2023-03-01T21:30:52;100872.16;;;4.35
45034;BMP280;30771;47.988;-4.186;2023-03-01T21:33:17;100876.38;;;4.36
45034;BMP280;30771;47.988;-4.186;2023-03-01T21:35:43;100878.03;;;4.37
45034;BMP280;30771;47.988;-4.186;2023-03-01T21:38:08;100872.69;;;4.38
45034;BMP280;30771;47.988;-4.186;2023-03-01T21:40:35;100873.50;;;4.39
45034;BMP280;30771;47.988;-4.186;2023-03-01T21:43:00;100876.09;;;4.39
45034;BMP280;30771;47.988;-4.186;2023-03-01T21:45:25;100871.84;;;4.38
45034;BMP280;30771;47.988;-4.186;2023-03-01T21:47:50;100865.00;;;4.37
45034;BMP280;30771;47.988;-4.186;2023-03-01T21:50:15;100870.22;;;4.37
45034;BMP280;30771;47.988;-4.186;2023-03-01T21:52:41;100863.50;;;4.34
45034;BMP280;30771;47.988;-4.186;2023-03-01T21:55:06;100873.94;;;4.34
45034;BMP280;30771;47.988;-4.186;2023-03-01T21:57:31;100866.28;;;4.33
45034;BMP280;30771;47.988;-4.186;2023-03-01T21:59:56;100869.84;;;4.32
45034;BMP280;30771;47.988;-4.186;2023-03-01T22:02:22;100866.59;;;4.30
45034;BMP280;30771;47.988;-4.186;2023-03-01T22:04:50;100863.16;;;4.29
45034;BMP280;30771;47.988;-4.186;2023-03-01T22:07:15;100864.25;;;4.27
45034;BMP280;30771;47.988;-4.186;2023-03-01T22:09:40;100864.38;;;4.25
45034;BMP280;30771;47.988;-4.186;2023-03-01T22:12:06;100860.16;;;4.24
45034;BMP280;30771;47.988;-4.186;2023-03-01T22:14:31;100857.53;;;4.24
45034;BMP280;30771;47.988;-4.186;2023-03-01T22:16:56;100856.72;;;4.23
45034;BMP280;30771;47.988;-4.186;2023-03-01T22:19:22;100852.31;;;4.24
45034;BMP280;30771;47.988;-4.186;2023-03-01T22:21:48;100854.94;;;4.24
45034;BMP280;30771;47.988;-4.186;2023-03-01T22:24:14;100850.56;;;4.24
45034;BMP280;30771;47.988;-4.186;2023-03-01T22:26:40;100846.13;;;4.25
45034;BMP280;30771;47.988;-4.186;2023-03-01T22:29:10;100844.34;;;4.25
45034;BMP280;30771;47.988;-4.186;2023-03-01T22:31:35;100842.56;;;4.26
45034;BMP280;30771;47.988;-4.186;2023-03-01T22:34:01;100833.81;;;4.27
45034;BMP280;30771;47.988;-4.186;2023-03-01T22:36:26;100831.88;;;4.29
45034;BMP280;30771;47.988;-4.186;2023-03-01T22:38:51;100824.72;;;4.31
45034;BMP280;30771;47.988;-4.186;2023-03-01T22:41:17;100824.72;;;4.31